Time;durP1;ratioP1;P1;durP2;ratioP2;P2;SDS_P1;SDS_P2;PMS_P1;PMS_P2;Temp;Humidity;BMP_temperature;BMP_pressure;BME280_temperature;BME280_humidity;BME280_pressure;Samples;Min_cycle;Max_cycle;Signal;HPM_P1;HPM_P2
2023/04/07 00:00:20;;;;;;;9.05;4.60;;;;;;;;;;5075466;28;20451;-55
2023/04/07 00:02:47;;;;;;;6.05;4.80;;;;;;;;;;5075751;28;20035;-55
2023/04/07 00:05:13;;;;;;;5.53;4.00;;;;;;;;;;5075758;28;20021;-55
2023/04/07 00:07:40;;;;;;;3.97;3.03;;;;;;;;;;5075766;28;20033;-51
2023/04/07 00:10:06;;;;;;;4.38;3.65;;;;;;;;;;5075060;28;20024;-55
2023/04/07 00:12:32;;;;;;;4.70;3.60;;;;;;;;;;5074980;28;20032;-56
2023/04/07 00:14:58;;;;;;;5.75;4.30;;;;;;;;;;5075008;28;20098;-55
2023/04/07 00:17:24;;;;;;;6.45;3.25;;;;;;;;;;5075006;28;20370;-55
2023/04/07 00:19:50;;;;;;;6.13;4.07;;;;;;;;;;5073628;28;20060;-51
2023/04/07 00:22:17;;;;;;;3.55;2.83;;;;;;;;;;5075120;28;20068;-54
2023/04/07 00:24:43;;;;;;;6.63;3.58;;;;;;;;;;5075325;28;20036;-54
2023/04/07 00:27:09;;;;;;;5.93;4.47;;;;;;;;;;5075586;28;20025;-50
2023/04/07 00:29:35;;;;;;;5.85;4.68;;;;;;;;;;5074559;28;20024;-54
2023/04/07 00:32:01;;;;;;;5.22;4.10;;;;;;;;;;5074597;28;20455;-51
2023/04/07 00:34:27;;;;;;;4.05;3.08;;;;;;;;;;5075182;28;20029;-49
2023/04/07 00:36:53;;;;;;;8.15;4.53;;;;;;;;;;5074549;28;20024;-51
2023/04/07 00:39:20;;;;;;;4.45;3.45;;;;;;;;;;5075283;28;20020;-52
2023/04/07 00:41:46;;;;;;;5.35;4.03;;;;;;;;;;5074026;28;20582;-50
2023/04/07 00:44:12;;;;;;;5.45;4.15;;;;;;;;;;5074470;28;20031;-50
2023/04/07 00:46:38;;;;;;;6.00;4.28;;;;;;;;;;5074452;28;20497;-50
2023/04/07 00:49:05;;;;;;;7.45;4.03;;;;;;;;;;5074039;28;20435;-50
2023/04/07 00:51:31;;;;;;;4.32;3.22;;;;;;;;;;5074783;28;20036;-49
2023/04/07 00:53:57;;;;;;;6.47;4.50;;;;;;;;;;5074807;28;20119;-51
2023/04/07 00:56:23;;;;;;;6.57;4.20;;;;;;;;;;5073958;28;20033;-49
2023/04/07 00:58:49;;;;;;;8.02;4.75;;;;;;;;;;5074469;28;20359;-51
2023/04/07 01:01:19;;;;;;;6.13;4.28;;;;;;;;;;5074130;28;20036;-50
2023/04/07 01:04:00;;;;;;;5.43;3.47;;;;;;;;;;5074075;28;20367;-53
2023/04/07 01:06:29;;;;;;;6.55;4.00;;;;;;;;;;5074487;28;20024;-50
2023/04/07 01:09:01;;;;;;;6.63;4.07;;;;;;;;;;5073970;28;20028;-49
2023/04/07 01:11:30;;;;;;;6.50;5.00;;;;;;;;;;5073893;28;20032;-49
2023/04/07 01:13:57;;;;;;;6.80;4.40;;;;;;;;;;5074416;28;20129;-50
2023/04/07 01:16:26;;;;;;;6.68;4.45;;;;;;;;;;5074288;28;20040;-52
2023/04/07 01:18:55;;;;;;;7.00;4.97;;;;;;;;;;5073820;28;20157;-51
2023/04/07 01:21:22;;;;;;;7.03;5.18;;;;;;;;;;5073897;28;20025;-52
2023/04/07 01:24:07;;;;;;;6.57;4.63;;;;;;;;;;5073913;28;20112;-50
2023/04/07 01:26:33;;;;;;;6.32;4.85;;;;;;;;;;5074179;28;20029;-49
2023/04/07 01:29:19;;;;;;;10.65;5.28;;;;;;;;;;5073438;28;20132;-49
2023/04/07 01:31:46;;;;;;;5.80;4.07;;;;;;;;;;5073693;28;20450;-50
2023/04/07 01:34:13;;;;;;;8.77;5.13;;;;;;;;;;5074035;28;20028;-52
2023/04/07 01:36:39;;;;;;;5.90;4.75;;;;;;;;;;5074200;28;20078;-51
2023/04/07 01:39:05;;;;;;;6.93;4.40;;;;;;;;;;5073996;28;20397;-51
2023/04/07 01:41:32;;;;;;;5.88;4.35;;;;;;;;;;5073951;28;20036;-55
2023/04/07 01:43:58;;;;;;;6.60;4.47;;;;;;;;;;5073937;28;20033;-56
2023/04/07 01:46:24;;;;;;;6.18;4.53;;;;;;;;;;5074252;28;20032;-53
2023/04/07 01:48:51;;;;;;;7.55;4.68;;;;;;;;;;5074074;28;20029;-52
2023/04/07 01:51:17;;;;;;;6.18;4.68;;;;;;;;;;5074250;28;20382;-53
2023/04/07 01:53:45;;;;;;;8.48;5.57;;;;;;;;;;5073581;28;20064;-51
2023/04/07 01:56:11;;;;;;;6.93;4.38;;;;;;;;;;5078329;28;20033;-54
2023/04/07 01:58:37;;;;;;;5.95;4.47;;;;;;;;;;5078315;28;20029;-53
2023/04/07 02:01:03;;;;;;;6.07;5.00;;;;;;;;;;5077558;28;20040;-52
2023/04/07 02:03:31;;;;;;;7.68;4.40;;;;;;;;;;5077308;28;20059;-55
2023/04/07 02:06:00;;;;;;;5.82;4.57;;;;;;;;;;5078116;28;20086;-54
2023/04/07 02:08:27;;;;;;;7.55;5.65;;;;;;;;;;5077416;28;20449;-53
2023/04/07 02:10:55;;;;;;;6.55;4.90;;;;;;;;;;5077904;28;20028;-55
2023/04/07 02:13:21;;;;;;;9.27;5.40;;;;;;;;;;5077318;28;20040;-54
2023/04/07 02:15:49;;;;;;;6.90;4.88;;;;;;;;;;5077468;28;20057;-53
2023/04/07 02:18:16;;;;;;;8.18;4.85;;;;;;;;;;5077481;28;20032;-53
2023/04/07 02:20:43;;;;;;;8.43;5.38;;;;;;;;;;5077159;28;20025;-53
2023/04/07 02:23:09;;;;;;;6.10;4.60;;;;;;;;;;5077201;28;20578;-55
2023/04/07 02:25:37;;;;;;;6.18;4.85;;;;;;;;;;5077167;28;20020;-55
2023/04/07 02:28:03;;;;;;;9.18;5.60;;;;;;;;;;5077027;28;20039;-52
2023/04/07 02:30:30;;;;;;;5.75;4.65;;;;;;;;;;5077254;28;20036;-54
2023/04/07 02:32:56;;;;;;;7.53;6.20;;;;;;;;;;5076818;28;20063;-55
2023/04/07 02:35:22;;;;;;;8.68;4.95;;;;;;;;;;5077296;28;20063;-55
2023/04/07 02:37:49;;;;;;;4.88;4.13;;;;;;;;;;5076551;28;20025;-54
2023/04/07 02:40:15;;;;;;;7.85;5.55;;;;;;;;;;5076794;28;20025;-53
2023/04/07 02:42:41;;;;;;;6.72;5.07;;;;;;;;;;5076815;28;20029;-52
2023/04/07 02:45:08;;;;;;;7.97;5.93;;;;;;;;;;5077358;28;20035;-53
2023/04/07 02:47:34;;;;;;;6.13;5.07;;;;;;;;;;5076709;28;20159;-53
2023/04/07 02:50:00;;;;;;;9.77;5.35;;;;;;;;;;5076673;28;20027;-54
2023/04/07 02:52:26;;;;;;;10.80;6.88;;;;;;;;;;5076274;28;20033;-54
2023/04/07 02:54:52;;;;;;;8.60;6.15;;;;;;;;;;5076895;28;20370;-53
2023/04/07 02:57:18;;;;;;;6.95;5.55;;;;;;;;;;5077376;28;20028;-52
2023/04/07 02:59:44;;;;;;;6.70;4.45;;;;;;;;;;5076157;28;20066;-55
2023/04/07 03:02:10;;;;;;;8.35;5.25;;;;;;;;;;5076350;28;20040;-55
2023/04/07 03:04:36;;;;;;;7.75;5.45;;;;;;;;;;5076707;28;20082;-54
2023/04/07 03:07:02;;;;;;;12.95;5.85;;;;;;;;;;5075516;28;20060;-54
2023/04/07 03:09:28;;;;;;;6.50;5.03;;;;;;;;;;5076846;28;20036;-55
2023/04/07 03:11:54;;;;;;;6.07;5.43;;;;;;;;;;5076254;28;20029;-54
2023/04/07 03:14:20;;;;;;;6.95;5.78;;;;;;;;;;5076635;28;20425;-54
2023/04/07 03:16:46;;;;;;;8.60;5.38;;;;;;;;;;5076132;28;20032;-51
2023/04/07 03:19:12;;;;;;;8.65;5.57;;;;;;;;;;5076186;28;20111;-55
2023/04/07 03:21:38;;;;;;;9.63;6.88;;;;;;;;;;5076393;28;20366;-56
2023/04/07 03:24:05;;;;;;;8.27;6.03;;;;;;;;;;5076059;28;20166;-53
2023/04/07 03:26:31;;;;;;;7.45;5.00;;;;;;;;;;5076377;28;20054;-55
2023/04/07 03:28:57;;;;;;;8.48;5.78;;;;;;;;;;5075897;28;20024;-54
2023/04/07 03:31:23;;;;;;;8.15;6.15;;;;;;;;;;5075841;28;20040;-53
2023/04/07 03:33:49;;;;;;;6.85;5.13;;;;;;;;;;5075851;28;20024;-55
2023/04/07 03:36:18;;;;;;;7.90;5.18;;;;;;;;;;5076231;28;20047;-54
2023/04/07 03:38:46;;;;;;;6.93;5.78;;;;;;;;;;5076085;28;20029;-55
2023/04/07 03:41:12;;;;;;;7.13;5.47;;;;;;;;;;5075774;28;20031;-55
2023/04/07 03:43:38;;;;;;;10.25;5.70;;;;;;;;;;5075822;28;20432;-56
2023/04/07 03:46:04;;;;;;;7.28;5.47;;;;;;;;;;5076074;28;20075;-55
2023/04/07 03:48:30;;;;;;;8.57;5.68;;;;;;;;;;5074805;28;20120;-55
2023/04/07 03:50:56;;;;;;;10.75;6.40;;;;;;;;;;5076367;28;20454;-56
2023/04/07 03:53:22;;;;;;;9.77;6.05;;;;;;;;;;5076032;28;20037;-55
2023/04/07 03:55:48;;;;;;;6.20;4.88;;;;;;;;;;5075064;28;20471;-53
2023/04/07 03:58:14;;;;;;;5.53;4.72;;;;;;;;;;5075422;28;20476;-55
2023/04/07 04:00:40;;;;;;;8.02;5.85;;;;;;;;;;5075370;28;20073;-54
2023/04/07 04:03:06;;;;;;;10.02;5.57;;;;;;;;;;5075925;28;20032;-56
2023/04/07 04:05:32;;;;;;;8.02;6.10;;;;;;;;;;5075964;28;20031;-51
2023/04/07 04:07:58;;;;;;;8.05;6.30;;;;;;;;;;5075789;28;20107;-54
2023/04/07 04:10:24;;;;;;;9.70;6.20;;;;;;;;;;5076056;28;20028;-55
2023/04/07 04:12:50;;;;;;;9.85;6.05;;;;;;;;;;5075056;28;20470;-53
2023/04/07 04:15:16;;;;;;;9.45;6.30;;;;;;;;;;5075479;28;20071;-54
2023/04/07 04:17:42;;;;;;;7.47;5.65;;;;;;;;;;5074691;28;20450;-55
2023/04/07 04:20:09;;;;;;;6.55;5.32;;;;;;;;;;5075052;28;20517;-55
2023/04/07 04:22:35;;;;;;;7.95;5.82;;;;;;;;;;5074987;28;20032;-54
2023/04/07 04:25:01;;;;;;;6.88;5.65;;;;;;;;;;5075173;28;20051;-56
2023/04/07 04:27:27;;;;;;;6.50;5.10;;;;;;;;;;5075138;28;20036;-55
2023/04/07 04:29:53;;;;;;;7.80;5.75;;;;;;;;;;5075151;28;20032;-54
2023/04/07 04:32:20;;;;;;;7.72;5.28;;;;;;;;;;5074696;28;20029;-55
2023/04/07 04:34:46;;;;;;;10.07;6.28;;;;;;;;;;5074934;28;20461;-50
2023/04/07 04:37:12;;;;;;;8.55;6.43;;;;;;;;;;5074590;28;20020;-54
2023/04/07 04:39:38;;;;;;;6.57;5.65;;;;;;;;;;5075141;28;20079;-56
2023/04/07 04:42:05;;;;;;;8.73;5.32;;;;;;;;;;5074622;28;20038;-56
2023/04/07 04:44:31;;;;;;;6.35;5.05;;;;;;;;;;5074549;28;20027;-53
2023/04/07 04:46:57;;;;;;;6.65;5.93;;;;;;;;;;5074496;28;20056;-55
2023/04/07 04:49:23;;;;;;;6.28;4.95;;;;;;;;;;5074971;28;20064;-56
2023/04/07 04:51:49;;;;;;;8.93;6.00;;;;;;;;;;5074287;28;20458;-55
2023/04/07 04:54:16;;;;;;;8.80;6.38;;;;;;;;;;5074606;28;20028;-56
2023/04/07 04:56:42;;;;;;;8.25;5.47;;;;;;;;;;5074725;28;20102;-53
2023/04/07 04:59:08;;;;;;;9.82;6.07;;;;;;;;;;5074502;28;20024;-55
2023/04/07 05:01:34;;;;;;;7.75;5.90;;;;;;;;;;5074492;28;20500;-56
2023/04/07 05:04:00;;;;;;;9.80;6.95;;;;;;;;;;5074112;28;20082;-53
2023/04/07 05:06:26;;;;;;;8.63;5.60;;;;;;;;;;5074725;28;20074;-54
2023/04/07 05:08:52;;;;;;;9.80;6.50;;;;;;;;;;5074110;28;20103;-56
2023/04/07 05:11:18;;;;;;;10.27;7.05;;;;;;;;;;5074009;28;20028;-52
2023/04/07 05:13:44;;;;;;;7.35;5.97;;;;;;;;;;5074299;28;20025;-53
2023/04/07 05:16:10;;;;;;;8.95;6.18;;;;;;;;;;5074137;28;20409;-56
2023/04/07 05:18:36;;;;;;;7.80;5.72;;;;;;;;;;5074015;28;20054;-54
2023/04/07 05:21:02;;;;;;;6.63;5.38;;;;;;;;;;5073984;28;20032;-55
2023/04/07 05:23:28;;;;;;;9.90;5.78;;;;;;;;;;5073976;28;20044;-56
2023/04/07 05:25:54;;;;;;;8.52;5.40;;;;;;;;;;5073963;28;20056;-56
2023/04/07 05:28:20;;;;;;;6.50;5.28;;;;;;;;;;5073988;28;20025;-55
2023/04/07 05:30:47;;;;;;;11.05;6.68;;;;;;;;;;5073475;28;20107;-56
2023/04/07 05:33:13;;;;;;;7.57;5.40;;;;;;;;;;5074063;28;20041;-55
2023/04/07 05:35:39;;;;;;;10.98;6.75;;;;;;;;;;5074619;28;20331;-54
2023/04/07 05:38:05;;;;;;;10.45;7.47;;;;;;;;;;5074431;28;20082;-54
2023/04/07 05:40:31;;;;;;;8.50;6.38;;;;;;;;;;5074247;28;20443;-55
2023/04/07 05:42:57;;;;;;;10.10;6.00;;;;;;;;;;5073610;28;20078;-54
2023/04/07 05:45:23;;;;;;;8.88;6.38;;;;;;;;;;5074244;28;20062;-52
2023/04/07 05:47:49;;;;;;;9.27;5.82;;;;;;;;;;5073991;28;20025;-50
2023/04/07 05:50:16;;;;;;;7.47;5.45;;;;;;;;;;5074373;28;20025;-53
2023/04/07 05:52:42;;;;;;;12.65;6.57;;;;;;;;;;5073535;28;20036;-56
2023/04/07 05:55:08;;;;;;;9.30;6.00;;;;;;;;;;5073661;28;20029;-55
2023/04/07 05:57:34;;;;;;;11.20;7.80;;;;;;;;;;5073595;28;20035;-54
2023/04/07 06:00:00;;;;;;;9.32;6.53;;;;;;;;;;5074160;28;20451;-56
2023/04/07 06:02:26;;;;;;;7.72;6.05;;;;;;;;;;5073851;28;20041;-54
2023/04/07 06:04:52;;;;;;;9.25;6.30;;;;;;;;;;5073446;28;20024;-55
2023/04/07 06:07:18;;;;;;;8.15;6.35;;;;;;;;;;5073959;28;20036;-56
2023/04/07 06:09:44;;;;;;;12.30;7.05;;;;;;;;;;5074034;28;20032;-56
2023/04/07 06:12:11;;;;;;;8.93;5.68;;;;;;;;;;5073343;28;20068;-55
2023/04/07 06:14:37;;;;;;;13.10;6.72;;;;;;;;;;5073658;28;20044;-55
2023/04/07 06:17:03;;;;;;;7.40;5.55;;;;;;;;;;5073438;28;20025;-55
2023/04/07 06:19:29;;;;;;;10.88;6.80;;;;;;;;;;5073695;28;20031;-54
2023/04/07 06:21:55;;;;;;;9.02;7.07;;;;;;;;;;5073918;28;20036;-57
2023/04/07 06:24:24;;;;;;;10.73;6.22;;;;;;;;;;5073262;28;20078;-54
2023/04/07 06:26:51;;;;;;;11.38;7.28;;;;;;;;;;5073667;28;20032;-56
2023/04/07 06:29:17;;;;;;;8.32;5.50;;;;;;;;;;5073312;28;20040;-55
2023/04/07 06:31:43;;;;;;;6.43;5.75;;;;;;;;;;5073253;28;20044;-56
2023/04/07 06:34:09;;;;;;;9.70;6.95;;;;;;;;;;5073330;28;20024;-56
2023/04/07 06:36:35;;;;;;;10.25;7.53;;;;;;;;;;5073605;28;20028;-55
2023/04/07 06:39:01;;;;;;;8.02;7.15;;;;;;;;;;5073004;28;20024;-54
2023/04/07 06:41:27;;;;;;;9.02;6.93;;;;;;;;;;5075819;28;20032;-54
2023/04/07 06:43:53;;;;;;;9.50;6.13;;;;;;;;;;5076753;28;20037;-54
2023/04/07 06:46:19;;;;;;;10.30;6.38;;;;;;;;;;5077143;28;20120;-57
2023/04/07 06:48:45;;;;;;;8.18;5.65;;;;;;;;;;5076779;28;20059;-55
2023/04/07 06:51:11;;;;;;;9.63;6.65;;;;;;;;;;5076653;28;20525;-55
2023/04/07 06:53:37;;;;;;;10.15;7.07;;;;;;;;;;5077008;28;20024;-55
2023/04/07 06:56:07;;;;;;;10.02;7.55;;;;;;;;;;5077161;28;20021;-50
2023/04/07 06:58:34;;;;;;;8.73;6.70;;;;;;;;;;5076907;28;20017;-52
2023/04/07 07:01:00;;;;;;;11.60;7.38;;;;;;;;;;5076466;28;20060;-50
2023/04/07 07:03:26;;;;;;;13.85;6.40;;;;;;;;;;5076414;28;20020;-51
2023/04/07 07:05:55;;;;;;;8.38;7.07;;;;;;;;;;5077057;28;20023;-52
2023/04/07 07:08:22;;;;;;;10.20;7.18;;;;;;;;;;5074843;28;20118;-56
2023/04/07 07:10:48;;;;;;;9.52;6.80;;;;;;;;;;5075879;28;20023;-53
2023/04/07 07:13:14;;;;;;;10.45;7.28;;;;;;;;;;5074992;28;20028;-52
2023/04/07 07:15:40;;;;;;;9.65;6.95;;;;;;;;;;5075970;28;20097;-53
2023/04/07 07:18:06;;;;;;;7.85;5.93;;;;;;;;;;5076567;28;20447;-58
2023/04/07 07:20:32;;;;;;;11.02;7.82;;;;;;;;;;5076256;28;20029;-51
2023/04/07 07:22:58;;;;;;;6.68;5.95;;;;;;;;;;5076693;28;20408;-57
2023/04/07 07:25:27;;;;;;;7.68;6.07;;;;;;;;;;5076662;28;20119;-53
2023/04/07 07:27:53;;;;;;;11.10;6.57;;;;;;;;;;5076518;28;20054;-54
2023/04/07 07:30:20;;;;;;;7.57;5.55;;;;;;;;;;5076032;28;20039;-57
2023/04/07 07:32:46;;;;;;;8.32;6.65;;;;;;;;;;5076007;28;20033;-53
2023/04/07 07:35:12;;;;;;;8.85;6.35;;;;;;;;;;5074624;28;20082;-52
2023/04/07 07:37:38;;;;;;;7.55;6.05;;;;;;;;;;5075793;28;20025;-52
2023/04/07 07:40:04;;;;;;;9.27;6.03;;;;;;;;;;5075620;28;20024;-52
2023/04/07 07:42:30;;;;;;;8.82;6.82;;;;;;;;;;5075795;28;20032;-53
2023/04/07 07:44:57;;;;;;;7.65;5.95;;;;;;;;;;5076050;28;20459;-53
2023/04/07 07:47:23;;;;;;;8.52;6.93;;;;;;;;;;5076061;28;20074;-56
2023/04/07 07:49:49;;;;;;;12.35;6.97;;;;;;;;;;5075707;28;20032;-53
2023/04/07 07:52:15;;;;;;;7.78;6.40;;;;;;;;;;5074731;28;20374;-56
2023/04/07 07:54:41;;;;;;;7.22;5.53;;;;;;;;;;5075452;28;20033;-56
2023/04/07 07:57:07;;;;;;;9.52;7.15;;;;;;;;;;5075872;28;20508;-56
2023/04/07 07:59:33;;;;;;;7.90;6.45;;;;;;;;;;5074310;28;20024;-57
2023/04/07 08:01:59;;;;;;;10.38;6.72;;;;;;;;;;5075410;28;20098;-55
2023/04/07 08:04:25;;;;;;;10.48;5.57;;;;;;;;;;5076093;28;20042;-55
2023/04/07 08:06:52;;;;;;;8.35;6.22;;;;;;;;;;5075386;28;20039;-57
2023/04/07 08:09:18;;;;;;;7.80;5.63;;;;;;;;;;5075233;28;20458;-57
2023/04/07 08:11:44;;;;;;;7.07;5.72;;;;;;;;;;5075636;28;20072;-55
2023/04/07 08:14:10;;;;;;;9.50;6.88;;;;;;;;;;5073652;28;20457;-54
2023/04/07 08:16:37;;;;;;;7.35;5.57;;;;;;;;;;5074884;28;20028;-54
2023/04/07 08:19:03;;;;;;;8.90;6.15;;;;;;;;;;5075319;28;20025;-53
2023/04/07 08:21:30;;;;;;;7.85;5.65;;;;;;;;;;5075026;28;20032;-53
2023/04/07 08:23:56;;;;;;;9.32;7.22;;;;;;;;;;5075722;28;20107;-55
2023/04/07 08:26:22;;;;;;;7.50;5.95;;;;;;;;;;5075494;28;20425;-55
2023/04/07 08:28:51;;;;;;;9.05;6.68;;;;;;;;;;5075189;28;20059;-56
2023/04/07 08:31:17;;;;;;;7.70;6.15;;;;;;;;;;5074799;28;20032;-51
2023/04/07 08:33:43;;;;;;;6.45;5.85;;;;;;;;;;5074967;28;20474;-53
2023/04/07 08:36:09;;;;;;;6.28;4.63;;;;;;;;;;5074921;28;20474;-52
2023/04/07 08:38:35;;;;;;;6.68;5.20;;;;;;;;;;5074580;28;20108;-52
2023/04/07 08:41:06;;;;;;;5.75;4.82;;;;;;;;;;5074610;28;20032;-50
2023/04/07 08:43:35;;;;;;;5.30;4.45;;;;;;;;;;5074366;28;20027;-53
2023/04/07 08:46:02;;;;;;;5.82;4.88;;;;;;;;;;5074942;28;20033;-51
2023/04/07 08:48:32;;;;;;;7.32;4.90;;;;;;;;;;5074663;28;20107;-51
2023/04/07 08:50:58;;;;;;;;;;;;;;;;;;5075310;28;20025;-53
2023/04/07 08:53:28;;;;;;;5.10;4.43;;;;;;;;;;5074252;28;19912;-57
2023/04/07 08:55:55;;;;;;;7.50;5.20;;;;;;;;;;5074567;28;20024;-54
2023/04/07 08:58:22;;;;;;;7.03;4.75;;;;;;;;;;5074877;28;20021;-52
2023/04/07 09:00:48;;;;;;;8.55;4.43;;;;;;;;;;5074829;28;20016;-53
2023/04/07 09:03:16;;;;;;;9.07;4.60;;;;;;;;;;5074063;28;20025;-54
2023/04/07 09:05:45;;;;;;;5.75;4.57;;;;;;;;;;5074245;28;20024;-54
2023/04/07 09:08:11;;;;;;;5.03;4.38;;;;;;;;;;5074075;28;20411;-53
2023/04/07 09:10:37;;;;;;;6.68;4.60;;;;;;;;;;5074336;28;20082;-56
2023/04/07 09:13:03;;;;;;;8.40;4.72;;;;;;;;;;5073925;28;20071;-54
2023/04/07 09:15:32;;;;;;;6.65;4.30;;;;;;;;;;5074627;28;20045;-56
2023/04/07 09:17:58;;;;;;;11.40;4.60;;;;;;;;;;5073977;28;20031;-57
2023/04/07 09:20:24;;;;;;;5.10;4.10;;;;;;;;;;5073981;28;20390;-56
2023/04/07 09:22:50;;;;;;;6.60;3.95;;;;;;;;;;5074221;28;20032;-57
2023/04/07 09:25:18;;;;;;;5.57;4.05;;;;;;;;;;5074532;28;20029;-56
2023/04/07 09:27:54;;;;;;;5.20;4.20;;;;;;;;;;5074176;28;20062;-56
2023/04/07 09:30:20;;;;;;;6.18;5.28;;;;;;;;;;5074122;28;20028;-56
2023/04/07 09:32:46;;;;;;;6.75;4.38;;;;;;;;;;5074566;28;20085;-56
2023/04/07 09:35:12;;;;;;;6.93;4.85;;;;;;;;;;5073789;28;20024;-56
2023/04/07 09:37:38;;;;;;;7.78;4.78;;;;;;;;;;5074482;28;20025;-55
2023/04/07 09:40:04;;;;;;;6.32;4.28;;;;;;;;;;5074273;28;20431;-56
2023/04/07 09:42:34;;;;;;;5.90;4.50;;;;;;;;;;5073706;28;20040;-57
2023/04/07 09:45:00;;;;;;;4.40;3.55;;;;;;;;;;5073585;28;20029;-56
2023/04/07 09:47:30;;;;;;;7.65;4.78;;;;;;;;;;5073517;28;20115;-56
2023/04/07 09:49:58;;;;;;;6.30;4.47;;;;;;;;;;5074191;28;20082;-57
2023/04/07 09:52:47;;;;;;;4.20;3.72;;;;;;;;;;5073421;28;20042;-56
2023/04/07 09:55:13;;;;;;;6.88;5.15;;;;;;;;;;5074100;28;20020;-57
2023/04/07 09:57:40;;;;;;;5.03;3.38;;;;;;;;;;5073613;28;20029;-56
2023/04/07 10:00:06;;;;;;;5.57;3.95;;;;;;;;;;5073554;28;20505;-57
2023/04/07 10:02:33;;;;;;;6.82;3.75;;;;;;;;;;5074133;28;20033;-57
2023/04/07 10:04:59;;;;;;;5.80;3.97;;;;;;;;;;5074396;28;20102;-55
2023/04/07 10:07:25;;;;;;;5.95;4.35;;;;;;;;;;5072476;28;20067;-57
2023/04/07 10:09:51;;;;;;;7.05;4.05;;;;;;;;;;5073308;28;20024;-58
2023/04/07 10:12:18;;;;;;;6.05;4.20;;;;;;;;;;5073316;28;20032;-56
2023/04/07 10:14:45;;;;;;;4.43;3.85;;;;;;;;;;5073060;28;20506;-57
2023/04/07 10:17:13;;;;;;;5.88;3.65;;;;;;;;;;5077364;28;20087;-58
2023/04/07 10:19:39;;;;;;;7.07;4.97;;;;;;;;;;5077334;28;20166;-56
2023/04/07 10:22:05;;;;;;;7.00;3.97;;;;;;;;;;5077340;28;20525;-57
2023/04/07 10:24:44;;;;;;;6.95;4.53;;;;;;;;;;5077036;28;20073;-57
2023/04/07 10:27:13;;;;;;;7.53;4.30;;;;;;;;;;5077719;28;20033;-57
2023/04/07 10:29:44;;;;;;;7.18;4.38;;;;;;;;;;5077353;28;20032;-57
2023/04/07 10:32:10;;;;;;;5.35;4.35;;;;;;;;;;5077035;28;20032;-58
2023/04/07 10:34:56;;;;;;;5.97;4.43;;;;;;;;;;5076697;28;20501;-54
2023/04/07 10:37:23;;;;;;;4.93;3.55;;;;;;;;;;5076916;28;20111;-55
2023/04/07 10:39:50;;;;;;;6.55;4.57;;;;;;;;;;5075704;28;20107;-55
2023/04/07 10:42:35;;;;;;;6.00;3.55;;;;;;;;;;5076933;28;20115;-57
2023/04/07 10:45:01;;;;;;;5.15;3.55;;;;;;;;;;5076550;28;20407;-57
2023/04/07 10:47:27;;;;;;;5.50;4.43;;;;;;;;;;5077349;28;20367;-58
2023/04/07 10:50:12;;;;;;;5.47;4.20;;;;;;;;;;5077037;28;20021;-58
2023/04/07 10:52:38;;;;;;;5.00;3.90;;;;;;;;;;5076679;28;20398;-56
2023/04/07 10:55:22;;;;;;;5.60;3.72;;;;;;;;;;5076789;28;20028;-55
2023/04/07 10:58:07;;;;;;;8.38;3.75;;;;;;;;;;5076273;28;20106;-57
2023/04/07 11:00:33;;;;;;;8.32;5.15;;;;;;;;;;5076821;28;20462;-56
2023/04/07 11:03:09;;;;;;;6.00;4.68;;;;;;;;;;5076834;28;20054;-57
2023/04/07 11:05:37;;;;;;;11.00;3.83;;;;;;;;;;5076532;28;20051;-56
2023/04/07 11:08:05;;;;;;;7.45;4.10;;;;;;;;;;5076430;28;20028;-56
2023/04/07 11:10:31;;;;;;;5.75;4.68;;;;;;;;;;5076423;28;20389;-56
2023/04/07 11:13:02;;;;;;;6.95;4.85;;;;;;;;;;5076808;28;20035;-57
2023/04/07 11:15:28;;;;;;;9.65;4.47;;;;;;;;;;5076963;28;20107;-57
2023/04/07 11:18:09;;;;;;;7.50;4.18;;;;;;;;;;5076213;28;20055;-55
2023/04/07 11:20:52;;;;;;;5.13;3.63;;;;;;;;;;5076227;28;20029;-54
2023/04/07 11:23:18;;;;;;;6.60;4.00;;;;;;;;;;5076707;28;20026;-54
2023/04/07 11:25:46;;;;;;;8.45;4.25;;;;;;;;;;5076620;28;20069;-56
2023/04/07 11:28:13;;;;;;;6.97;3.30;;;;;;;;;;5074954;28;20021;-54
2023/04/07 11:30:39;;;;;;;5.40;3.35;;;;;;;;;;5076039;28;20021;-54
2023/04/07 11:33:05;;;;;;;6.95;4.20;;;;;;;;;;5075925;28;20474;-57
2023/04/07 11:35:31;;;;;;;5.07;3.17;;;;;;;;;;5076372;28;20029;-56
2023/04/07 11:37:58;;;;;;;5.82;3.15;;;;;;;;;;5075852;28;20170;-56
2023/04/07 11:40:34;;;;;;;3.65;2.10;;;;;;;;;;5075798;28;20028;-56
2023/04/07 11:43:01;;;;;;;3.05;1.88;;;;;;;;;;5075726;28;20028;-56
2023/04/07 11:45:27;;;;;;;5.10;2.85;;;;;;;;;;5076380;28;20024;-56
2023/04/07 11:47:53;;;;;;;2.90;1.88;;;;;;;;;;5075770;28;20537;-57
2023/04/07 11:50:38;;;;;;;2.83;1.73;;;;;;;;;;5075501;28;20020;-56
2023/04/07 11:53:04;;;;;;;5.05;1.75;;;;;;;;;;5076125;28;20449;-56
2023/04/07 11:55:30;;;;;;;3.60;1.65;;;;;;;;;;5076191;28;20029;-58
2023/04/07 11:58:04;;;;;;;4.22;2.10;;;;;;;;;;5075522;28;20028;-57
2023/04/07 12:00:31;;;;;;;2.20;1.20;;;;;;;;;;5076028;28;20031;-57
2023/04/07 12:02:57;;;;;;;2.20;1.48;;;;;;;;;;5075884;28;20111;-58
2023/04/07 12:05:23;;;;;;;4.32;2.08;;;;;;;;;;5075625;28;20024;-57
2023/04/07 12:07:54;;;;;;;3.63;1.83;;;;;;;;;;5074618;28;20086;-57
2023/04/07 12:10:20;;;;;;;7.35;2.83;;;;;;;;;;5075308;28;20536;-57
2023/04/07 12:12:47;;;;;;;6.15;3.67;;;;;;;;;;5075632;28;20505;-57
2023/04/07 12:15:13;;;;;;;7.50;4.90;;;;;;;;;;5075713;28;20136;-57
2023/04/07 12:17:43;;;;;;;9.90;4.13;;;;;;;;;;5075679;28;20438;-58
2023/04/07 12:20:10;;;;;;;5.80;3.70;;;;;;;;;;5075450;28;20054;-55
2023/04/07 12:22:35;;;;;;;8.82;4.55;;;;;;;;;;5074723;28;20509;-56
2023/04/07 12:25:01;;;;;;;6.43;4.25;;;;;;;;;;5075522;28;20024;-57
2023/04/07 12:27:27;;;;;;;6.13;4.78;;;;;;;;;;5074912;28;20082;-58
2023/04/07 12:29:53;;;;;;;5.90;4.32;;;;;;;;;;5075365;28;20351;-57
2023/04/07 12:32:20;;;;;;;7.55;5.72;;;;;;;;;;5075270;28;20431;-57
2023/04/07 12:34:46;;;;;;;6.28;4.70;;;;;;;;;;5074747;28;20115;-58
2023/04/07 12:37:12;;;;;;;8.85;6.07;;;;;;;;;;5074679;28;20047;-57
2023/04/07 12:39:38;;;;;;;6.75;5.50;;;;;;;;;;5074457;28;20024;-57
2023/04/07 12:42:04;;;;;;;8.77;6.03;;;;;;;;;;5074644;28;20033;-57
2023/04/07 12:44:31;;;;;;;8.57;6.03;;;;;;;;;;5074573;28;20082;-55
2023/04/07 12:46:57;;;;;;;6.55;5.43;;;;;;;;;;5074556;28;20036;-59
2023/04/07 12:49:22;;;;;;;7.85;5.25;;;;;;;;;;5074521;28;20343;-59
2023/04/07 12:51:48;;;;;;;6.30;4.03;;;;;;;;;;5074678;28;20439;-58
2023/04/07 12:54:14;;;;;;;5.35;4.50;;;;;;;;;;5074435;28;20021;-59
2023/04/07 12:56:41;;;;;;;4.55;3.85;;;;;;;;;;5075006;28;20035;-58
2023/04/07 12:59:08;;;;;;;5.15;3.13;;;;;;;;;;5074043;28;20533;-59
2023/04/07 13:01:36;;;;;;;5.50;2.88;;;;;;;;;;5074205;28;20033;-59
2023/04/07 13:04:02;;;;;;;4.65;2.17;;;;;;;;;;5074230;28;20107;-59
2023/04/07 13:06:29;;;;;;;3.70;2.22;;;;;;;;;;5074566;28;20074;-58
2023/04/07 13:08:55;;;;;;;4.25;3.15;;;;;;;;;;5074198;28;20036;-58
2023/04/07 13:11:21;;;;;;;3.38;2.25;;;;;;;;;;5074091;28;20473;-58
2023/04/07 13:13:47;;;;;;;3.05;1.63;;;;;;;;;;5074502;28;20119;-59
2023/04/07 13:16:13;;;;;;;2.63;1.80;;;;;;;;;;5073826;28;20108;-58
2023/04/07 13:18:39;;;;;;;2.60;1.55;;;;;;;;;;5073795;28;20024;-58
2023/04/07 13:21:05;;;;;;;2.83;1.85;;;;;;;;;;5074538;28;20028;-59
2023/04/07 13:23:31;;;;;;;3.15;1.20;;;;;;;;;;5074269;28;20036;-59
2023/04/07 13:25:57;;;;;;;3.67;1.95;;;;;;;;;;5074542;28;20029;-59
2023/04/07 13:28:23;;;;;;;4.00;1.70;;;;;;;;;;5073684;28;20024;-58
2023/04/07 13:30:49;;;;;;;2.15;1.40;;;;;;;;;;5074156;28;20029;-58
2023/04/07 13:33:15;;;;;;;3.10;2.00;;;;;;;;;;5074344;28;20032;-59
2023/04/07 13:35:41;;;;;;;5.00;3.33;;;;;;;;;;5074493;28;20024;-59
2023/04/07 13:38:08;;;;;;;3.20;2.50;;;;;;;;;;5074059;28;20375;-59
2023/04/07 13:40:34;;;;;;;2.95;1.90;;;;;;;;;;5074604;28;20035;-59
2023/04/07 13:43:00;;;;;;;3.00;2.53;;;;;;;;;;5073454;28;20482;-59
2023/04/07 13:45:26;;;;;;;2.38;2.10;;;;;;;;;;5074419;28;20398;-59
2023/04/07 13:47:52;;;;;;;5.00;2.95;;;;;;;;;;5073589;28;20032;-58
2023/04/07 13:50:18;;;;;;;3.17;2.08;;;;;;;;;;5073034;28;20470;-58
2023/04/07 13:52:44;;;;;;;3.67;2.03;;;;;;;;;;5073462;28;20039;-59
2023/04/07 13:55:10;;;;;;;2.10;1.33;;;;;;;;;;5073624;28;20533;-58
2023/04/07 13:57:36;;;;;;;2.65;1.98;;;;;;;;;;5073858;28;20028;-58
2023/04/07 14:00:02;;;;;;;5.95;1.77;;;;;;;;;;5073682;28;20071;-58
2023/04/07 14:02:29;;;;;;;2.42;1.58;;;;;;;;;;5074356;28;20554;-58
2023/04/07 14:04:55;;;;;;;3.13;1.58;;;;;;;;;;5073540;28;20047;-58
2023/04/07 14:07:22;;;;;;;3.13;1.52;;;;;;;;;;5073570;28;20029;-59
2023/04/07 14:09:48;;;;;;;2.72;1.42;;;;;;;;;;5073496;28;20028;-57
2023/04/07 14:12:14;;;;;;;1.60;0.95;;;;;;;;;;5073412;28;20067;-59
2023/04/07 14:14:40;;;;;;;4.68;2.25;;;;;;;;;;5073247;28;20394;-60
2023/04/07 14:17:06;;;;;;;2.53;1.73;;;;;;;;;;5074219;28;20069;-60
2023/04/07 14:19:32;;;;;;;3.33;2.00;;;;;;;;;;5073390;28;20112;-60
2023/04/07 14:21:58;;;;;;;3.90;1.92;;;;;;;;;;5073410;28;20033;-60
2023/04/07 14:24:24;;;;;;;3.20;1.58;;;;;;;;;;5073179;28;20055;-60
2023/04/07 14:26:53;;;;;;;3.85;2.25;;;;;;;;;;5073984;28;20101;-60
2023/04/07 14:29:19;;;;;;;2.53;1.80;;;;;;;;;;5073799;28;20370;-60
2023/04/07 14:31:47;;;;;;;5.35;3.25;;;;;;;;;;5073399;28;20075;-60
2023/04/07 14:34:13;;;;;;;3.65;2.88;;;;;;;;;;5073241;28;20035;-60
2023/04/07 14:36:39;;;;;;;3.50;2.58;;;;;;;;;;5073590;28;20021;-60
2023/04/07 14:39:05;;;;;;;6.60;3.42;;;;;;;;;;5073364;28;20052;-60
2023/04/07 14:41:31;;;;;;;4.05;3.28;;;;;;;;;;5072845;28;20082;-60